createdAt,value
2022-09-20T00:02:23.160Z,12.59
2022-09-20T00:04:55.500Z,12.60
2022-09-20T00:07:27.869Z,12.61
2022-09-20T00:10:01.765Z,12.62
2022-09-20T00:12:36.257Z,12.62
2022-09-20T00:15:09.634Z,12.57
2022-09-20T00:17:42.171Z,12.57
2022-09-20T00:20:14.510Z,12.48
2022-09-20T00:22:49.762Z,12.57
2022-09-20T00:25:23.782Z,12.50
2022-09-20T00:27:56.197Z,12.58
2022-09-20T00:30:28.761Z,12.58
2022-09-20T00:33:01.582Z,12.60
2022-09-20T00:35:33.967Z,12.57
2022-09-20T00:38:06.343Z,12.61
2022-09-20T00:40:40.500Z,12.60
2022-09-20T00:43:16.283Z,12.63
2022-09-20T00:45:49.839Z,12.63
2022-09-20T00:48:28.597Z,12.64
2022-09-20T00:51:08.131Z,12.65
2022-09-20T00:53:45.496Z,12.63
2022-09-20T00:56:23.599Z,12.64
2022-09-20T00:59:04.303Z,12.62
2022-09-20T01:01:37.068Z,12.56
2022-09-20T01:04:11.395Z,12.64
2022-09-20T01:06:46.179Z,12.62
2022-09-20T01:09:18.685Z,12.64
2022-09-20T01:11:53.758Z,12.65
2022-09-20T01:14:27.351Z,12.61
2022-09-20T01:17:04.070Z,12.66
2022-09-20T01:19:43.287Z,12.55
2022-09-20T01:22:23.878Z,12.66
2022-09-20T01:25:07.579Z,12.67
2022-09-20T01:27:44.100Z,12.64
2022-09-20T01:30:19.695Z,12.67
2022-09-20T01:33:07.686Z,12.57
2022-09-20T01:35:44.705Z,12.65
2022-09-20T01:38:30.013Z,12.64
2022-09-20T01:41:11.287Z,12.60
2022-09-20T01:43:52.061Z,12.63
2022-09-20T01:46:32.825Z,12.62
2022-09-20T01:49:29.232Z,12.61
2022-09-20T01:52:42.738Z,12.60
2022-09-20T01:56:00.748Z,12.58
2022-09-20T01:59:24.167Z,12.56
2022-09-20T02:02:26.473Z,12.50
2022-09-20T02:05:10.824Z,12.52
2022-09-20T02:08:09.228Z,12.54
2022-09-20T02:11:04.239Z,12.50
2022-09-20T02:13:59.621Z,12.54
2022-09-20T02:16:50.883Z,12.53
2022-09-20T02:19:51.749Z,12.47
2022-09-20T02:22:35.541Z,12.49
2022-09-20T02:25:18.630Z,12.47
2022-09-20T02:28:06.264Z,12.46
2022-09-20T02:30:50.856Z,12.45
2022-09-20T02:33:41.093Z,12.40
2022-09-20T02:36:28.054Z,12.44
2022-09-20T02:39:08.555Z,12.39
2022-09-20T02:41:59.569Z,12.33
2022-09-20T02:44:53.826Z,12.43
2022-09-20T02:47:34.258Z,12.43
2022-09-20T02:50:21.665Z,12.39
2022-09-20T02:53:11.371Z,12.39
2022-09-20T02:55:50.473Z,12.38
2022-09-20T02:58:36.304Z,12.36
2022-09-20T03:01:20.199Z,12.34
2022-09-20T03:04:02.373Z,12.26
2022-09-20T03:06:43.099Z,12.29
2022-09-20T03:09:28.693Z,12.28
2022-09-20T03:12:11.600Z,12.15
2022-09-20T03:14:55.097Z,12.24
2022-09-20T03:17:36.688Z,12.14
2022-09-20T03:20:21.221Z,12.16
2022-09-20T03:23:02.258Z,12.05
2022-09-20T03:25:46.964Z,12.14
2022-09-20T03:28:34.706Z,12.10
2022-09-20T03:31:19.332Z,12.11
2022-09-20T03:34:04.043Z,12.10
2022-09-20T03:36:50.764Z,12.05
2022-09-20T03:39:46.506Z,12.03
2022-09-20T03:42:24.604Z,11.98
2022-09-20T03:45:29.363Z,11.95
2022-09-20T03:48:13.515Z,11.92
2022-09-20T03:50:52.559Z,11.89
2022-09-20T03:53:46.482Z,11.93
2022-09-20T03:56:59.069Z,11.94
2022-09-20T03:59:47.975Z,12.00
2022-09-20T04:02:36.626Z,12.04
2022-09-20T04:05:14.425Z,12.04
2022-09-20T04:08:00.927Z,12.13
2022-09-20T04:10:46.988Z,12.16
2022-09-20T04:13:34.748Z,12.18
2022-09-20T04:16:34.708Z,12.20
2022-09-20T04:19:14.416Z,12.18
2022-09-20T04:21:55.945Z,12.19
2022-09-20T04:24:40.916Z,12.22
2022-09-20T04:27:17.978Z,12.24
2022-09-20T04:29:57.697Z,12.26
2022-09-20T04:32:39.637Z,12.30
2022-09-20T04:35:52.005Z,12.30
2022-09-20T04:38:25.013Z,12.29
2022-09-20T04:41:18.677Z,12.29
2022-09-20T04:44:24.507Z,12.27
2022-09-20T04:47:32.052Z,12.31
2022-09-20T04:50:29.288Z,12.23
2022-09-20T04:53:26.451Z,12.29
2022-09-20T04:56:02.127Z,12.32
2022-09-20T04:58:47.916Z,12.32
2022-09-20T05:01:57.097Z,12.32
2022-09-20T05:05:09.143Z,12.33
2022-09-20T05:08:18.261Z,12.31
2022-09-20T05:11:17.492Z,12.30
2022-09-20T05:14:13.922Z,12.29
2022-09-20T05:17:01.359Z,12.29
2022-09-20T05:19:48.497Z,12.28
2022-09-20T05:22:47.191Z,12.29
2022-09-20T05:25:43.079Z,12.35
2022-09-20T05:28:24.117Z,12.32
2022-09-20T05:30:59.018Z,12.37
2022-09-20T05:33:40.700Z,12.39
2022-09-20T05:36:20.714Z,12.42
2022-09-20T05:39:03.564Z,12.42
2022-09-20T05:41:45.978Z,12.45
2022-09-20T05:44:29.380Z,12.46
2022-09-20T05:47:13.703Z,12.46
2022-09-20T05:49:55.857Z,12.54
2022-09-20T05:52:44.863Z,12.51
2022-09-20T05:55:49.623Z,12.56
2022-09-20T05:58:46.917Z,12.59
2022-09-20T06:01:24.575Z,12.59
2022-09-20T06:04:09.488Z,12.61
2022-09-20T06:06:52.548Z,12.63
2022-09-20T06:09:50.874Z,12.61
2022-09-20T06:12:39.396Z,12.67
2022-09-20T06:15:21.592Z,12.68
2022-09-20T06:18:04.594Z,12.71
2022-09-20T06:20:46.560Z,12.61
2022-09-20T06:23:19.199Z,12.78
2022-09-20T06:25:57.399Z,12.84
2022-09-20T06:28:34.292Z,12.81
2022-09-20T06:31:10.295Z,12.95
2022-09-20T06:33:45.720Z,13.00
2022-09-20T06:36:41.736Z,13.03
2022-09-20T06:39:40.461Z,13.09
2022-09-20T06:42:13.128Z,13.14
2022-09-20T06:44:47.144Z,13.18
2022-09-20T06:47:21.884Z,13.23
2022-09-20T06:49:54.549Z,13.25
2022-09-20T06:52:27.140Z,13.27
2022-09-20T06:54:59.687Z,13.28
2022-09-20T06:57:38.005Z,13.33
2022-09-20T07:00:15.873Z,13.31
2022-09-20T07:02:50.038Z,13.35
2022-09-20T07:05:22.816Z,13.36
2022-09-20T07:07:57.597Z,13.34
2022-09-20T07:10:30.352Z,13.36
2022-09-20T07:13:03.060Z,13.39
2022-09-20T07:15:35.800Z,13.42
2022-09-20T07:18:09.699Z,13.44
2022-09-20T07:20:42.340Z,13.36
2022-09-20T07:23:15.794Z,13.43
2022-09-20T07:25:48.312Z,13.44
2022-09-20T07:28:20.879Z,13.46
2022-09-20T07:30:53.465Z,13.49
2022-09-20T07:33:27.350Z,13.52
2022-09-20T07:35:59.864Z,13.50
2022-09-20T07:38:32.658Z,13.53
2022-09-20T07:41:05.532Z,13.54
2022-09-20T07:43:38.185Z,13.57
2022-09-20T07:46:13.878Z,13.53
2022-09-20T07:48:47.900Z,13.60
2022-09-20T07:51:20.509Z,13.61
2022-09-20T07:53:55.266Z,13.61
2022-09-20T07:56:27.770Z,13.67
2022-09-20T07:59:00.252Z,13.63
2022-09-20T08:01:32.818Z,13.72
2022-09-20T08:04:07.212Z,13.74
2022-09-20T08:06:41.823Z,13.73
2022-09-20T08:09:14.512Z,13.75
2022-09-20T08:11:47.672Z,13.74
2022-09-20T08:14:20.979Z,13.70
2022-09-20T08:16:53.737Z,13.73
2022-09-20T08:19:27.749Z,13.75
2022-09-20T08:22:00.259Z,13.72
2022-09-20T08:24:33.205Z,13.70
2022-09-20T08:27:05.727Z,13.71
2022-09-20T08:29:38.088Z,13.69
2022-09-20T08:32:11.556Z,13.69
2022-09-20T08:34:49.223Z,13.66
2022-09-20T08:37:21.987Z,13.64
2022-09-20T08:39:58.394Z,13.62
2022-09-20T08:42:36.706Z,13.60
2022-09-20T08:45:22.239Z,13.59
2022-09-20T08:47:59.024Z,13.57
2022-09-20T08:50:34.741Z,13.41
2022-09-20T08:53:07.468Z,13.51
2022-09-20T08:55:42.813Z,13.53
2022-09-20T08:58:16.567Z,13.51
2022-09-20T09:00:49.012Z,13.50
2022-09-20T09:03:21.625Z,13.45
2022-09-20T09:05:59.518Z,13.48
2022-09-20T09:08:38.733Z,13.45
2022-09-20T09:11:15.634Z,13.44
2022-09-20T09:13:53.501Z,13.47
2022-09-20T09:16:35.083Z,13.49
2022-09-20T09:19:33.197Z,13.50
2022-09-20T09:22:07.976Z,13.47
2022-09-20T09:24:40.429Z,13.52
2022-09-20T09:27:16.706Z,13.56
2022-09-20T09:29:58.429Z,13.57
2022-09-20T09:32:33.085Z,13.64
2022-09-20T09:35:24.011Z,13.69
2022-09-20T09:37:59.381Z,13.68
2022-09-20T09:40:33.285Z,13.65
2022-09-20T09:43:06.153Z,13.67
2022-09-20T09:45:39.724Z,13.76
2022-09-20T09:48:19.658Z,13.78
2022-09-20T09:51:08.785Z,13.81
2022-09-20T09:53:43.538Z,13.81
2022-09-20T09:56:39.702Z,13.85
2022-09-20T09:59:30.618Z,13.82
2022-09-20T10:02:19.976Z,13.85
2022-09-20T10:04:59.304Z,13.77
2022-09-20T10:07:40.199Z,13.84
2022-09-20T10:10:27.259Z,13.87
2022-09-20T10:13:12.728Z,13.87
2022-09-20T10:15:53.584Z,13.92
2022-09-20T10:18:40.436Z,13.89
2022-09-20T10:21:29.818Z,13.91
2022-09-20T10:24:17.103Z,13.96
2022-09-20T10:27:14.174Z,13.98
2022-09-20T10:30:00.486Z,13.99
2022-09-20T10:32:59.976Z,14.02
2022-09-20T10:35:59.256Z,14.11
2022-09-20T10:38:39.933Z,14.17
2022-09-20T10:41:42.857Z,14.21
2022-09-20T10:44:50.341Z,14.26
2022-09-20T10:47:31.751Z,14.40
2022-09-20T10:50:21.481Z,14.43
2022-09-20T10:53:06.865Z,14.50
2022-09-20T10:55:52.128Z,14.54
2022-09-20T10:58:49.394Z,14.52
2022-09-20T11:01:34.414Z,14.50
2022-09-20T11:04:46.823Z,14.51
2022-09-20T11:07:28.229Z,14.47
2022-09-20T11:10:06.373Z,14.55
2022-09-20T11:12:44.340Z,14.62
2022-09-20T11:15:23.308Z,14.61
2022-09-20T11:18:05.175Z,14.66
2022-09-20T11:20:44.549Z,14.71
2022-09-20T11:23:21.726Z,14.75
2022-09-20T11:26:00.759Z,14.68
2022-09-20T11:28:40.690Z,14.84
2022-09-20T11:31:24.289Z,14.80
2022-09-20T11:34:08.615Z,14.90
2022-09-20T11:36:54.206Z,14.85
2022-09-20T11:39:35.113Z,14.88
2022-09-20T11:42:15.185Z,15.01
2022-09-20T11:44:47.993Z,15.03
2022-09-20T11:47:49.937Z,15.06
2022-09-20T11:50:57.300Z,15.10
2022-09-20T11:53:47.003Z,15.08
2022-09-20T11:56:22.752Z,15.04
2022-09-20T11:58:58.449Z,14.80
2022-09-20T12:01:34.408Z,15.05
2022-09-20T12:04:31.924Z,15.07
2022-09-20T12:07:17.847Z,15.06
2022-09-20T12:09:57.434Z,15.07
2022-09-20T12:12:38.323Z,15.12
2022-09-20T12:15:25.483Z,15.13
2022-09-20T12:18:33.218Z,15.13
2022-09-20T12:21:14.987Z,15.03
2022-09-20T12:24:19.352Z,15.05
2022-09-20T12:26:59.521Z,14.97
2022-09-20T12:30:06.889Z,14.93
2022-09-20T12:32:47.136Z,14.89
2022-09-20T12:35:56.210Z,14.88
2022-09-20T12:38:48.434Z,14.72
2022-09-20T12:41:28.544Z,14.79
2022-09-20T12:44:32.901Z,14.59
2022-09-20T12:47:17.432Z,14.38
2022-09-20T12:50:14.375Z,14.57
2022-09-20T12:52:54.213Z,14.57
2022-09-20T12:55:43.917Z,14.66
2022-09-20T12:58:36.286Z,14.64
2022-09-20T13:01:31.782Z,14.66
2022-09-20T13:04:41.282Z,14.62
2022-09-20T13:07:54.255Z,14.58
2022-09-20T13:10:32.509Z,14.58
2022-09-20T13:13:29.076Z,14.58
2022-09-20T13:16:05.788Z,14.53
2022-09-20T13:18:40.577Z,14.53
2022-09-20T13:21:13.412Z,14.47
2022-09-20T13:23:50.936Z,14.47
2022-09-20T13:26:27.619Z,14.45
2022-09-20T13:29:01.554Z,14.40
2022-09-20T13:31:35.787Z,14.49
2022-09-20T13:34:24.156Z,14.52
2022-09-20T13:37:03.092Z,14.51
2022-09-20T13:39:37.463Z,14.60
2022-09-20T13:42:19.868Z,14.56
2022-09-20T13:44:52.637Z,14.50
2022-09-20T13:47:27.318Z,14.57
2022-09-20T13:50:03.136Z,14.28
2022-09-20T13:52:45.795Z,14.54
2022-09-20T13:55:31.149Z,14.51
2022-09-20T13:58:07.547Z,14.53
2022-09-20T14:00:47.158Z,14.60
2022-09-20T14:03:21.141Z,14.63
2022-09-20T14:06:00.077Z,14.57
2022-09-20T14:08:36.944Z,14.67
2022-09-20T14:11:16.451Z,14.64
2022-09-20T14:13:54.692Z,14.55
2022-09-20T14:16:31.207Z,14.57
2022-09-20T14:19:09.758Z,14.64
2022-09-20T14:21:44.563Z,14.63
2022-09-20T14:24:26.982Z,14.63
2022-09-20T14:27:18.442Z,14.59
2022-09-20T14:29:52.069Z,14.47
2022-09-20T14:32:40.250Z,14.54
2022-09-20T14:35:17.682Z,14.55
2022-09-20T14:37:53.937Z,14.52
2022-09-20T14:40:28.164Z,14.52
2022-09-20T14:43:02.791Z,14.44
2022-09-20T14:45:38.131Z,14.50
2022-09-20T14:48:32.897Z,14.45
2022-09-20T14:51:26.128Z,14.45
2022-09-20T14:54:25.292Z,14.40
2022-09-20T14:56:58.901Z,14.36
2022-09-20T14:59:37.231Z,14.42
2022-09-20T15:02:14.254Z,14.39
2022-09-20T15:04:54.710Z,14.34
2022-09-20T15:07:27.496Z,14.36
2022-09-20T15:10:01.640Z,14.34
2022-09-20T15:12:35.387Z,14.25
2022-09-20T15:15:15.102Z,14.32
2022-09-20T15:17:47.801Z,14.23
2022-09-20T15:20:24.309Z,14.29
2022-09-20T15:22:58.194Z,14.27
2022-09-20T15:25:32.634Z,14.26
2022-09-20T15:28:08.166Z,14.23
2022-09-20T15:30:42.923Z,14.21
2022-09-20T15:33:16.404Z,14.19
2022-09-20T15:35:49.432Z,14.17
2022-09-20T15:38:22.899Z,14.11
2022-09-20T15:40:56.877Z,14.07
2022-09-20T15:43:31.258Z,13.95
2022-09-20T15:46:18.687Z,13.93
2022-09-20T15:48:51.172Z,13.79
2022-09-20T15:51:23.815Z,13.79
2022-09-20T15:53:58.006Z,13.72
2022-09-20T15:56:33.610Z,13.66
2022-09-20T15:59:07.980Z,13.61
2022-09-20T16:01:42.235Z,13.56
2022-09-20T16:04:17.560Z,13.50
2022-09-20T16:06:51.046Z,13.45
2022-09-20T16:09:23.580Z,13.32
2022-09-20T16:12:00.461Z,13.29
2022-09-20T16:14:32.926Z,13.21
2022-09-20T16:17:05.494Z,13.20
2022-09-20T16:19:38.662Z,13.14
2022-09-20T16:22:12.704Z,13.09
2022-09-20T16:24:45.135Z,13.05
2022-09-20T16:27:19.074Z,13.01
2022-09-20T16:29:52.051Z,12.96
2022-09-20T16:32:24.571Z,12.86
2022-09-20T16:34:58.635Z,12.87
2022-09-20T16:37:33.177Z,12.79
2022-09-20T16:40:07.304Z,12.76
2022-09-20T16:42:41.715Z,12.72
2022-09-20T16:45:14.453Z,12.55
2022-09-20T16:47:47.903Z,12.59
2022-09-20T16:50:20.619Z,12.52
2022-09-20T16:52:53.379Z,12.53
2022-09-20T16:55:26.160Z,12.48
2022-09-20T16:58:00.425Z,12.41
2022-09-20T17:00:34.059Z,12.34
2022-09-20T17:03:06.890Z,12.27
2022-09-20T17:05:39.857Z,12.18
2022-09-20T17:08:12.636Z,12.17
2022-09-20T17:10:46.562Z,12.13
2022-09-20T17:13:21.676Z,12.08
2022-09-20T17:16:02.557Z,12.05
2022-09-20T17:18:35.539Z,11.69
2022-09-20T17:21:09.512Z,11.68
2022-09-20T17:23:46.484Z,11.88
2022-09-20T17:26:25.208Z,11.89
2022-09-20T17:29:01.288Z,11.84
2022-09-20T17:31:35.627Z,11.80
2022-09-20T17:34:10.472Z,11.75
2022-09-20T17:36:44.998Z,11.71
2022-09-20T17:39:18.521Z,11.62
2022-09-20T17:41:51.894Z,11.60
2022-09-20T17:44:26.034Z,11.61
2022-09-20T17:46:58.595Z,11.59
2022-09-20T17:49:31.712Z,11.53
2022-09-20T17:52:08.143Z,11.51
2022-09-20T17:54:40.956Z,11.43
2022-09-20T17:57:13.951Z,11.39
2022-09-20T17:59:48.184Z,11.32
2022-09-20T18:02:21.122Z,11.35
2022-09-20T18:04:53.959Z,11.31
2022-09-20T18:07:26.719Z,11.26
2022-09-20T18:10:02.365Z,11.22
2022-09-20T18:12:36.448Z,11.10
2022-09-20T18:15:11.134Z,11.16
2022-09-20T18:17:43.891Z,11.12
2022-09-20T18:20:16.807Z,11.08
2022-09-20T18:22:50.595Z,11.05
2022-09-20T18:25:24.423Z,10.42
2022-09-20T18:27:57.510Z,10.45
2022-09-20T18:30:32.289Z,10.40
2022-09-20T18:33:04.972Z,10.87
2022-09-20T18:35:40.974Z,10.80
2022-09-20T18:38:17.447Z,10.81
2022-09-20T18:40:56.008Z,10.77
2022-09-20T18:43:30.266Z,10.72
2022-09-20T18:46:04.684Z,10.65
2022-09-20T18:48:39.744Z,10.70
2022-09-20T18:51:13.198Z,10.66
2022-09-20T18:53:46.206Z,10.63
2022-09-20T18:56:23.093Z,10.60
2022-09-20T18:58:58.085Z,10.54
2022-09-20T19:01:47.831Z,10.53
2022-09-20T19:04:45.561Z,10.53
2022-09-20T19:07:26.150Z,10.42
2022-09-20T19:10:07.870Z,10.44
2022-09-20T19:12:47.225Z,10.39
2022-09-20T19:15:36.729Z,10.34
2022-09-20T19:18:30.901Z,10.35
2022-09-20T19:21:15.614Z,10.30
2022-09-20T19:24:03.478Z,10.27
2022-09-20T19:26:40.945Z,10.24
2022-09-20T19:29:19.599Z,10.12
2022-09-20T19:31:55.730Z,10.20
2022-09-20T19:34:32.449Z,10.18
2022-09-20T19:37:20.911Z,10.15
2022-09-20T19:40:15.157Z,10.14
2022-09-20T19:43:00.375Z,10.11
2022-09-20T19:45:42.217Z,10.10
2022-09-20T19:48:25.619Z,10.08
2022-09-20T19:51:04.454Z,10.07
2022-09-20T19:53:40.741Z,10.00
2022-09-20T19:56:23.610Z,9.96
2022-09-20T19:58:57.006Z,9.98
2022-09-20T20:01:30.476Z,9.95
2022-09-20T20:04:03.932Z,9.91
2022-09-20T20:06:46.901Z,9.88
2022-09-20T20:09:27.136Z,9.84
2022-09-20T20:12:07.139Z,9.83
2022-09-20T20:14:49.117Z,9.83
2022-09-20T20:17:36.572Z,9.75
2022-09-20T20:20:33.932Z,9.76
2022-09-20T20:23:39.799Z,9.82
2022-09-20T20:26:26.770Z,9.78
2022-09-20T20:29:00.232Z,9.80
2022-09-20T20:31:33.181Z,9.80
2022-09-20T20:34:09.545Z,9.86
2022-09-20T20:36:42.627Z,9.86
2022-09-20T20:39:17.655Z,9.89
2022-09-20T20:41:52.754Z,9.86
2022-09-20T20:44:28.579Z,9.87
2022-09-20T20:47:04.385Z,9.71
2022-09-20T20:49:40.063Z,9.52
2022-09-20T20:52:12.851Z,9.57
2022-09-20T20:54:46.730Z,9.54
2022-09-20T20:57:19.378Z,9.77
2022-09-20T20:59:52.036Z,9.82
2022-09-20T21:02:24.685Z,9.89
2022-09-20T21:04:59.861Z,9.50
2022-09-20T21:07:32.433Z,9.73
2022-09-20T21:10:08.373Z,9.91
2022-09-20T21:12:40.919Z,9.90
2022-09-20T21:15:13.602Z,9.88
2022-09-20T21:17:50.653Z,9.84
2022-09-20T21:20:23.206Z,9.80
2022-09-20T21:22:56.460Z,9.74
2022-09-20T21:25:30.442Z,9.78
2022-09-20T21:28:05.159Z,9.77
2022-09-20T21:30:37.708Z,9.76
2022-09-20T21:33:11.587Z,9.76
2022-09-20T21:35:44.104Z,9.77
2022-09-20T21:38:16.790Z,9.81
2022-09-20T21:40:50.743Z,9.83
2022-09-20T21:43:23.253Z,9.84
2022-09-20T21:45:57.166Z,9.84
2022-09-20T21:48:29.854Z,9.85
2022-09-20T21:51:04.150Z,9.86
2022-09-20T21:53:37.175Z,9.86
2022-09-20T21:56:14.231Z,9.83
2022-09-20T21:58:47.025Z,9.88
2022-09-20T22:01:21.562Z,9.87
2022-09-20T22:03:56.587Z,9.89
2022-09-20T22:06:30.430Z,9.86
2022-09-20T22:09:05.706Z,9.89
2022-09-20T22:11:41.793Z,9.87
2022-09-20T22:14:16.299Z,9.84
2022-09-20T22:16:51.448Z,9.85
2022-09-20T22:19:24.652Z,9.86
2022-09-20T22:21:57.168Z,9.84
2022-09-20T22:24:30.091Z,9.86
2022-09-20T22:27:03.997Z,9.85
2022-09-20T22:29:36.393Z,9.79
2022-09-20T22:32:08.902Z,9.82
2022-09-20T22:34:41.401Z,9.83
2022-09-20T22:37:13.782Z,9.83
2022-09-20T22:39:46.740Z,9.82
2022-09-20T22:42:20.565Z,9.79
2022-09-20T22:44:53.124Z,9.82
2022-09-20T22:47:25.630Z,9.82
2022-09-20T22:49:57.972Z,9.86
2022-09-20T22:52:30.481Z,9.88
2022-09-20T22:55:02.962Z,9.88
2022-09-20T22:57:37.548Z,9.89
2022-09-20T23:00:11.207Z,9.91
2022-09-20T23:02:43.692Z,9.89
2022-09-20T23:05:18.251Z,9.92
2022-09-20T23:07:50.685Z,9.92
2022-09-20T23:10:23.173Z,9.89
2022-09-20T23:12:57.058Z,9.88
2022-09-20T23:15:29.487Z,9.85
2022-09-20T23:18:01.979Z,9.80
2022-09-20T23:20:34.268Z,9.83
2022-09-20T23:23:06.765Z,9.83
2022-09-20T23:25:39.264Z,9.81
2022-09-20T23:28:13.149Z,9.80
2022-09-20T23:30:45.524Z,9.82
2022-09-20T23:33:18.029Z,9.84
2022-09-20T23:35:51.741Z,9.82
2022-09-20T23:38:24.272Z,9.86
2022-09-20T23:41:01.555Z,9.86
2022-09-20T23:43:36.521Z,9.87
2022-09-20T23:46:10.307Z,9.84
2022-09-20T23:48:43.531Z,9.85
2022-09-20T23:51:18.259Z,9.84
2022-09-20T23:53:51.542Z,9.84
2022-09-20T23:56:24.613Z,9.85
2022-09-20T23:58:58.509Z,9.86
